地図

経路データ

SID SEASON NUMBER BASIN SUBBASIN NAME ISO_TIME NATURE LAT LON WMO_WIND WMO_PRES WMO_AGENCY TRACK_TYPE DIST2LAND LANDFALL IFLAG USA_AGENCY USA_ATCF_ID USA_LAT USA_LON USA_RECORD USA_STATUS USA_WIND USA_PRES USA_SSHS USA_R34_NE USA_R34_SE USA_R34_SW USA_R34_NW USA_R50_NE USA_R50_SE USA_R50_SW USA_R50_NW USA_R64_NE USA_R64_SE USA_R64_SW USA_R64_NW USA_POCI USA_ROCI USA_RMW USA_EYE TOKYO_LAT TOKYO_LON TOKYO_GRADE TOKYO_WIND TOKYO_PRES TOKYO_R50_DIR TOKYO_R50_LONG TOKYO_R50_SHORT TOKYO_R30_DIR TOKYO_R30_LONG TOKYO_R30_SHORT TOKYO_LAND CMA_LAT CMA_LON CMA_CAT CMA_WIND CMA_PRES HKO_LAT HKO_LON HKO_CAT HKO_WIND HKO_PRES NEWDELHI_LAT NEWDELHI_LON NEWDELHI_GRADE NEWDELHI_WIND NEWDELHI_PRES NEWDELHI_CI NEWDELHI_DP NEWDELHI_POCI REUNION_LAT REUNION_LON REUNION_TYPE REUNION_WIND REUNION_PRES REUNION_TNUM REUNION_CI REUNION_RMW REUNION_R34_NE REUNION_R34_SE REUNION_R34_SW REUNION_R34_NW REUNION_R50_NE REUNION_R50_SE REUNION_R50_SW REUNION_R50_NW REUNION_R64_NE REUNION_R64_SE REUNION_R64_SW REUNION_R64_NW BOM_LAT BOM_LON BOM_TYPE BOM_WIND BOM_PRES BOM_TNUM BOM_CI BOM_RMW BOM_R34_NE BOM_R34_SE BOM_R34_SW BOM_R34_NW BOM_R50_NE BOM_R50_SE BOM_R50_SW BOM_R50_NW BOM_R64_NE BOM_R64_SE BOM_R64_SW BOM_R64_NW BOM_ROCI BOM_POCI BOM_EYE BOM_POS_METHOD BOM_PRES_METHOD NADI_LAT NADI_LON NADI_CAT NADI_WIND NADI_PRES WELLINGTON_LAT WELLINGTON_LON WELLINGTON_WIND WELLINGTON_PRES DS824_LAT DS824_LON DS824_STAGE DS824_WIND DS824_PRES TD9636_LAT TD9636_LON TD9636_STAGE TD9636_WIND TD9636_PRES TD9635_LAT TD9635_LON TD9635_WIND TD9635_PRES TD9635_ROCI NEUMANN_LAT NEUMANN_LON NEUMANN_CLASS NEUMANN_WIND NEUMANN_PRES MLC_LAT MLC_LON MLC_CLASS MLC_WIND MLC_PRES USA_GUST BOM_GUST BOM_GUST_PER REUNION_GUST REUNION_GUST_PER USA_SEAHGT USA_SEARAD_NE USA_SEARAD_SE USA_SEARAD_SW USA_SEARAD_NW STORM_SPEED STORM_DIR
1891259N20312 1891 34 NA NA NOT_NAMED 1891-09-15 18:00:00 TS 20.5000 -48.0000 main 1766 1751 _____________O -1 20.5000 -48.0000 TS 35 8 301
1891259N20312 1891 34 NA NA NOT_NAMED 1891-09-15 21:00:00 TS 20.7001 -48.3498 main 1759 1749 _____________P -1 20.7001 -48.3498 TS 37 3 145
1891259N20312 1891 34 NA NA NOT_NAMED 1891-09-16 00:00:00 TS 20.2600 -47.8200 35 hurdat_atl main 1754 1744 O____________O hurdat_atl AL051891 19.3000 -46.5000 TS 35 0 20.9000 -48.7000 TS 40 5 133
1891259N20312 1891 34 NA NA NOT_NAMED 1891-09-16 03:00:00 TS 20.3313 -47.9237 main 1749 1749 P____________P AL051891 19.5626 -46.7972 TS 35 0 21.0999 -49.0501 TS 45 2 307
1891259N20312 1891 34 NA NA NOT_NAMED 1891-09-16 06:00:00 TS 20.4000 -48.0200 35 hurdat_atl main 1756 1751 O____________O hurdat_atl AL051891 19.8000 -47.1000 TS 35 0 21.3000 -49.4000 TS 50 3 303
1891259N20312 1891 34 NA NA NOT_NAMED 1891-09-16 09:00:00 TS 20.4999 -48.1969 main 1754 1736 P____________P AL051891 19.9998 -47.4203 TS 35 0 21.4999 -49.7501 TS 55 6 300
1891259N20312 1891 34 NA NA NOT_NAMED 1891-09-16 12:00:00 TS 20.7000 -48.5667 35 hurdat_atl main 1734 1716 O____________O hurdat_atl AL051891 20.2000 -47.8000 TS 35 0 21.7000 -50.1000 TS 60 9 299
1891259N20312 1891 34 NA NA NOT_NAMED 1891-09-16 15:00:00 TS 20.9233 -49.0018 main 1716 1699 P____________P AL051891 20.4350 -48.2776 TS 35 0 21.8999 -50.4501 TS 60 10 299
1891259N20312 1891 34 NA NA NOT_NAMED 1891-09-16 18:00:00 TS 21.1667 -49.4667 35 hurdat_atl main 1699 1674 O____________O hurdat_atl AL051891 20.7000 -48.8000 TS 35 0 22.1000 -50.8000 TS 60 10 301
1891259N20312 1891 34 NA NA NOT_NAMED 1891-09-16 21:00:00 TS 21.4333 -49.9217 main 1674 1637 P____________P AL051891 20.9999 -49.3075 TS 35 0 22.2999 -51.1501 TS 62 10 302
1891259N20312 1891 34 NA NA NOT_NAMED 1891-09-17 00:00:00 TS 21.7000 -50.3667 35 hurdat_atl main 1629 1592 O____________O hurdat_atl AL051891 21.3000 -49.8000 TS 35 0 22.5000 -51.5000 HU 65 10 302
1891259N20312 1891 34 NA NA NOT_NAMED 1891-09-17 03:00:00 TS 21.9382 -50.7885 main 1592 1557 P____________P AL051891 21.5573 -50.2578 TS 35 0 22.6999 -51.8501 HU 65 9 301
1891259N20312 1891 34 NA NA NOT_NAMED 1891-09-17 06:00:00 TS 22.1667 -51.2000 35 hurdat_atl main 1559 1525 O____________O hurdat_atl AL051891 21.8000 -50.7000 TS 35 0 22.9000 -52.2000 HU 65 9 301
1891259N20312 1891 34 NA NA NOT_NAMED 1891-09-17 09:00:00 TS 22.3999 -51.6218 main 1525 1491 P____________P AL051891 22.0499 -51.1576 TS 37 0 23.0999 -52.5501 HU 65 9 301
1891259N20312 1891 34 NA NA NOT_NAMED 1891-09-17 12:00:00 TS 22.6333 -52.0333 40 hurdat_atl main 1491 1458 O____________O hurdat_atl AL051891 22.3000 -51.6000 TS 40 0 23.3000 -52.9000 HU 65 9 303
1891259N20312 1891 34 NA NA NOT_NAMED 1891-09-17 15:00:00 TS 22.8715 -52.4218 main 1461 1429 P____________P AL051891 22.5573 -52.0076 TS 40 0 23.4999 -53.2501 HU 67 8 303
1891259N20312 1891 34 NA NA NOT_NAMED 1891-09-17 18:00:00 TS 23.1000 -52.8000 40 hurdat_atl main 1429 1399 O____________O hurdat_atl AL051891 22.8000 -52.4000 TS 40 0 23.7000 -53.6000 HU 70 8 301
1891259N20312 1891 34 NA NA NOT_NAMED 1891-09-17 21:00:00 TS 23.2999 -53.1885 main 1399 1374 P____________P AL051891 23.0000 -52.8077 TS 42 0 23.8999 -53.9501 HU 70 8 300
1891259N20312 1891 34 NA NA NOT_NAMED 1891-09-18 00:00:00 TS 23.5000 -53.5667 45 hurdat_atl main 1369 1350 O____________O hurdat_atl AL051891 23.2000 -53.2000 TS 45 0 24.1000 -54.3000 HU 70 8 303
1891259N20312 1891 34 NA NA NOT_NAMED 1891-09-18 03:00:00 TS 23.7282 -53.9168 main 1350 1331 P____________P AL051891 23.4423 -53.5502 TS 47 0 24.2999 -54.6501 HU 70 8 306
1891259N20312 1891 34 NA NA NOT_NAMED 1891-09-18 06:00:00 TS 23.9667 -54.2667 50 hurdat_atl main 1327 1305 O____________O hurdat_atl AL051891 23.7000 -53.9000 TS 50 0 24.5000 -55.0000 HU 70 8 305
1891259N20312 1891 34 NA NA NOT_NAMED 1891-09-18 09:00:00 TS 24.1949 -54.6427 main 1310 1285 P____________P AL051891 23.9424 -54.2852 TS 52 0 24.7000 -55.3576 HU 70 8 304
1891259N20312 1891 34 NA NA NOT_NAMED 1891-09-18 12:00:00 TS 24.4333 -55.0333 55 hurdat_atl main 1285 1261 O____________O hurdat_atl AL051891 24.2000 -54.7000 TS 55 0 24.9000 -55.7000 HU 70 9 305
1891259N20312 1891 34 NA NA NOT_NAMED 1891-09-18 15:00:00 TS 24.6874 -55.4236 main 1267 1245 P____________P AL051891 24.4924 -55.1351 TS 57 0 25.0773 -56.0004 HU 70 9 306
1891259N20312 1891 34 NA NA NOT_NAMED 1891-09-18 18:00:00 TS 24.9667 -55.8333 60 hurdat_atl main 1251 1230 O____________O hurdat_atl AL051891 24.8000 -55.6000 TS 60 0 25.3000 -56.3000 HU 70 10 307
1891259N20312 1891 34 NA NA NOT_NAMED 1891-09-18 21:00:00 TS 25.2758 -56.2809 main 1230 1212 P____________P AL051891 25.1000 -56.1001 TS 62 0 25.6275 -56.6425 HU 70 10 308
1891259N20312 1891 34 NA NA NOT_NAMED 1891-09-19 00:00:00 TS 25.6000 -56.7333 65 hurdat_atl main 1219 1203 O____________O hurdat_atl AL051891 25.4000 -56.6000 HU 65 1 26.0000 -57.0000 HU 70 10 309
1891259N20312 1891 34 NA NA NOT_NAMED 1891-09-19 03:00:00 TS 25.9165 -57.1602 main 1203 1197 P____________P AL051891 25.6999 -57.0652 HU 67 1 26.3499 -57.3502 HU 72 10 310
1891259N20312 1891 34 NA NA NOT_NAMED 1891-09-19 06:00:00 TS 26.2333 -57.5667 70 hurdat_atl main 1198 1198 O____________O hurdat_atl AL051891 26.0000 -57.5000 HU 70 1 26.7000 -57.7000 HU 75 10 311
1891259N20312 1891 34 NA NA NOT_NAMED 1891-09-19 09:00:00 TS 26.5499 -57.9627 main 1194 1194 P____________P AL051891 26.2999 -57.9152 HU 70 1 27.0500 -58.0576 HU 75 9 313
1891259N20312 1891 34 NA NA NOT_NAMED 1891-09-19 12:00:00 TS 26.8667 -58.3333 70 hurdat_atl main 1209 1202 O____________O hurdat_atl AL051891 26.6000 -58.3000 HU 70 1 27.4000 -58.4000 HU 75 9 315
1891259N20312 1891 34 NA NA NOT_NAMED 1891-09-19 15:00:00 TS 27.1655 -58.6548 main 1210 1210 P____________P AL051891 26.8772 -58.6357 HU 72 1 27.7423 -58.6930 HU 75 9 317
1891259N20312 1891 34 NA NA NOT_NAMED 1891-09-19 18:00:00 TS 27.5000 -59.0000 75 hurdat_atl main 1220 1220 O____________O hurdat_atl AL051891 27.2000 -59.0000 HU 75 1 28.1000 -59.0000 HU 75 10 317
1891259N20312 1891 34 NA NA NOT_NAMED 1891-09-19 21:00:00 TS 27.9285 -59.4638 main 1230 1230 P____________P AL051891 27.6428 -59.4995 HU 77 1 28.5001 -59.3924 HU 75 12 316
1891259N20312 1891 34 NA NA NOT_NAMED 1891-09-20 00:00:00 TS 28.3667 -59.9333 80 hurdat_atl main 1259 1254 O____________O hurdat_atl AL051891 28.1000 -60.0000 HU 80 1 28.9000 -59.8000 HU 75 983 11 318
1891259N20312 1891 34 NA NA NOT_NAMED 1891-09-20 03:00:00 TS 28.7314 -60.2939 main 1271 1271 P____________P AL051891 28.4646 -60.3657 HU 80 1 29.2648 -60.1504 HU 77 9 319
1891259N20312 1891 34 NA NA NOT_NAMED 1891-09-20 06:00:00 TS 29.0667 -60.6333 80 hurdat_atl main 1299 1295 O____________O hurdat_atl AL051891 28.8000 -60.7000 HU 80 1 29.6000 -60.5000 HU 80 9 316
1891259N20312 1891 34 NA NA NOT_NAMED 1891-09-20 09:00:00 TS 29.4150 -61.0383 main 1314 1311 P____________P AL051891 29.1651 -61.1074 HU 82 1 29.9150 -60.9001 HU 80 10 314
1891259N20312 1891 34 NA NA NOT_NAMED 1891-09-20 12:00:00 TS 29.7333 -61.4333 85 hurdat_atl main 1332 1329 O____________O hurdat_atl AL051891 29.5000 -61.5000 HU 85 2 30.2000 -61.3000 HU 80 9 312
1891259N20312 1891 34 NA NA NOT_NAMED 1891-09-20 15:00:00 TS 29.9957 -61.7703 main 1351 1351 P____________P AL051891 29.7648 -61.8154 HU 85 2 30.4575 -61.6801 HU 82 7 312
1891259N20312 1891 34 NA NA NOT_NAMED 1891-09-20 18:00:00 TS 30.2333 -62.0667 85 hurdat_atl main 1365 1359 O____________O hurdat_atl AL051891 30.0000 -62.1000 HU 85 2 30.7000 -62.0000 HU 85 7 315
1891259N20312 1891 34 NA NA NOT_NAMED 1891-09-20 21:00:00 TS 30.4857 -62.3435 main 1359 1323 P____________P AL051891 30.2499 -62.4002 HU 85 2 30.9574 -62.2302 HU 87 7 317
1891259N20312 1891 34 NA NA NOT_NAMED 1891-09-21 00:00:00 TS 30.7333 -62.6000 85 hurdat_atl main 1323 1291 O____________O hurdat_atl AL051891 30.5000 -62.7000 HU 85 2 31.2000 -62.4000 HU 90 7 318
1891259N20312 1891 34 NA NA NOT_NAMED 1891-09-21 03:00:00 TS 30.9716 -62.8551 main 1282 1255 P____________P AL051891 30.7500 -63.0150 HU 85 2 31.4148 -62.5352 HU 90 6 317
1891259N20312 1891 34 NA NA NOT_NAMED 1891-09-21 06:00:00 TS 31.2000 -63.1000 85 hurdat_atl main 1255 1228 O____________O hurdat_atl AL051891 31.0000 -63.3000 HU 85 2 31.6000 -62.7000 HU 90 6 317
1891259N20312 1891 34 NA NA NOT_NAMED 1891-09-21 09:00:00 TS 31.4191 -63.3434 main 1228 1193 P____________P AL051891 31.2499 -63.5227 HU 85 2 31.7576 -62.9850 HU 90 6 317
1891259N20312 1891 34 NA NA NOT_NAMED 1891-09-21 12:00:00 TS 31.6333 -63.5667 85 hurdat_atl main 1193 1166 O____________O hurdat_atl AL051891 31.5000 -63.7000 HU 85 2 31.9000 -63.3000 HU 90 6 320
1891259N20312 1891 34 NA NA NOT_NAMED 1891-09-21 15:00:00 TS 31.8575 -63.7725 main 1161 1143 P____________P AL051891 31.7500 -63.8725 HU 85 2 32.0725 -63.5724 HU 90 5 324
1891259N20312 1891 34 NA NA NOT_NAMED 1891-09-21 18:00:00 TS 32.0667 -63.9333 85 hurdat_atl main 1143 1130 O____________O hurdat_atl AL051891 32.0000 -64.0000 HU 85 2 32.2000 -63.8000 HU 90 4 330
1891259N20312 1891 34 NA NA NOT_NAMED 1891-09-21 21:00:00 TS 32.2433 -64.0393 main 1130 1113 P____________P AL051891 32.2575 -64.0726 HU 85 2 32.2149 -63.9727 HU 87 4 337
1891259N20312 1891 34 NA NA NOT_NAMED 1891-09-22 00:00:00 TS 32.4000 -64.1000 85 hurdat_atl main 1113 1108 O____________O hurdat_atl AL051891 32.5000 -64.1000 HU 85 2 32.2000 -64.1000 HU 85 3 344
1891259N20312 1891 34 NA NA NOT_NAMED 1891-09-22 03:00:00 TS 32.5550 -64.1458 main 1104 1091 P____________P AL051891 32.7075 -64.1150 HU 85 2 32.2500 -64.2075 HU 85 3 351
1891259N20312 1891 34 NA NA NOT_NAMED 1891-09-22 06:00:00 TS 32.7000 -64.1667 85 hurdat_atl main 1091 1087 O____________O hurdat_atl AL051891 32.9000 -64.1000 HU 85 2 32.3000 -64.3000 HU 85 3 353
1891259N20312 1891 34 NA NA NOT_NAMED 1891-09-22 09:00:00 TS 32.8183 -64.1964 main 1087 1079 P____________P AL051891 33.0774 -64.0872 HU 85 2 32.3000 -64.4150 HU 85 3 0
1891259N20312 1891 34 NA NA NOT_NAMED 1891-09-22 12:00:00 TS 32.9667 -64.1667 85 hurdat_atl main 1079 1079 O____________O hurdat_atl AL051891 33.3000 -64.0000 HU 85 2 32.3000 -64.5000 HU 85 972 4 19
1891259N20312 1891 34 NA NA NOT_NAMED 1891-09-22 15:00:00 TS 33.1866 -64.0474 main 1083 1067 P____________P AL051891 33.6199 -63.8024 HU 85 2 32.3200 -64.5374 HU 85 6 29
1891259N20312 1891 34 NA NA NOT_NAMED 1891-09-22 18:00:00 TS 33.4667 -63.8333 85 hurdat_atl main 1062 1042 O____________O hurdat_atl AL051891 34.0000 -63.5000 HU 85 2 32.4000 -64.5000 HU 85 7 35
1891259N20312 1891 34 NA NA NOT_NAMED 1891-09-22 21:00:00 TS 33.7800 -63.5466 main 1047 1028 P____________P AL051891 34.3925 -63.1299 HU 85 2 32.5550 -64.3799 HU 85 9 38
1891259N20312 1891 34 NA NA NOT_NAMED 1891-09-23 00:00:00 TS 34.1333 -63.2000 85 hurdat_atl main 1033 1012 O____________O hurdat_atl AL051891 34.8000 -62.7000 HU 85 2 32.8000 -64.2000 HU 85 9 38
1891259N20312 1891 34 NA NA NOT_NAMED 1891-09-23 03:00:00 TS 34.5115 -62.8506 main 1012 978 P____________P AL051891 35.2072 -62.2721 HU 85 2 33.1200 -64.0075 HU 85 11 38
1891259N20312 1891 34 NA NA NOT_NAMED 1891-09-23 06:00:00 TS 35.0273 -62.3455 85 hurdat_atl main 980 936 O____________O hurdat_atl AL051891 35.6000 -61.8000 HU 85 2 33.5000 -63.8000 HU 85 14 41
1891259N20312 1891 34 NA NA NOT_NAMED 1891-09-23 09:00:00 TS 35.5425 -61.7583 main 939 904 P____________P AL051891 35.9568 -61.3016 HU 85 2 33.8928 -63.6207 HU 85 15 46
1891259N20312 1891 34 NA NA NOT_NAMED 1891-09-23 12:00:00 TS 36.0778 -61.0000 85 hurdat_atl main 901 882 O____________O hurdat_atl AL051891 36.3000 -60.7000 HU 85 2 34.3000 -63.4000 HU 85 18 52
1891259N20312 1891 34 NA NA NOT_NAMED 1891-09-23 15:00:00 TS 36.6648 -59.9526 main 879 878 P____________P AL051891 36.6648 -59.9526 HU 85 2 34.6568 -63.1016 HU 18 59
1891259N20312 1891 34 NA NA NOT_NAMED 1891-09-23 18:00:00 TS 37.0000 -59.1000 85 hurdat_atl main 892 888 O____________P hurdat_atl AL051891 37.0000 -59.1000 HU 85 2 34.9835 -62.7203 HU 15 66
1891259N20312 1891 34 NA NA NOT_NAMED 1891-09-23 21:00:00 TS 37.2721 -58.2143 main 908 907 P____________P AL051891 37.2721 -58.2143 HU 85 2 35.2881 -62.2573 HU 15 71
1891259N20312 1891 34 NA NA NOT_NAMED 1891-09-24 00:00:00 TS 37.5000 -57.3000 85 hurdat_atl main 912 911 O____________P hurdat_atl AL051891 37.5000 -57.3000 HU 85 2 35.5785 -61.7138 HU 15 73
1891259N20312 1891 34 NA NA NOT_NAMED 1891-09-24 03:00:00 TS 37.7145 -56.3921 main 920 917 P____________P AL051891 37.7145 -56.3921 HU 85 2 35.8625 -61.0907 HU 15 74
1891259N20312 1891 34 NA NA NOT_NAMED 1891-09-24 06:00:00 TS 37.9000 -55.5000 85 hurdat_atl main 934 933 O____________P hurdat_atl AL051891 37.9000 -55.5000 HU 85 2 36.1477 -60.3888 HU 14 75
1891259N20312 1891 34 NA NA NOT_NAMED 1891-09-24 09:00:00 TS 38.0795 -54.6277 main 948 934 P____________P AL051891 38.0795 -54.6277 HU 85 2 36.4418 -59.6083 HU 14 77
1891259N20312 1891 34 NA NA NOT_NAMED 1891-09-24 12:00:00 TS 38.2000 -53.8000 85 hurdat_atl main 934 934 O____________P hurdat_atl AL051891 38.2000 -53.8000 HU 85 2 36.7521 -58.7490 HU 13 84
1891259N20312 1891 34 NA NA NOT_NAMED 1891-09-24 15:00:00 TS 38.2217 -53.0343 main 934 934 P____________P AL051891 38.2217 -53.0343 HU 85 2 37.0860 -57.8104 HU 12 90
1891259N20312 1891 34 NA NA NOT_NAMED 1891-09-24 18:00:00 TS 38.2000 -52.3000 85 hurdat_atl main 937 937 O____________P hurdat_atl AL051891 38.2000 -52.3000 HU 85 2 37.4506 -56.7909 HU 12 91
1891259N20312 1891 34 NA NA NOT_NAMED 1891-09-24 21:00:00 TS 38.1995 -51.5500 main 944 944 P____________P AL051891 38.1995 -51.5500 HU 82 1 37.8530 -55.6884 HU 9 89
1891259N20312 1891 34 NA NA NOT_NAMED 1891-09-25 00:00:00 TS 38.2111 -51.2111 80 hurdat_atl main 948 940 O____________O hurdat_atl AL051891 38.2000 -50.8000 HU 80 1 38.3000 -54.5000 HU 85 7 80
1891259N20312 1891 34 NA NA NOT_NAMED 1891-09-25 03:00:00 TS 38.3194 -50.6799 main 945 933 P____________P AL051891 38.1995 -50.0500 HU 80 1 38.8030 -53.2151 HU 82 10 73
1891259N20312 1891 34 NA NA NOT_NAMED 1891-09-25 06:00:00 TS 38.5000 -50.0091 80 hurdat_atl main 937 928 O____________O hurdat_atl AL051891 38.2000 -49.3000 HU 80 1 39.3000 -51.9000 HU 80 12 71
1891259N20312 1891 34 NA NA NOT_NAMED 1891-09-25 09:00:00 TS 38.7057 -49.2488 main 936 932 P____________P AL051891 38.1845 -48.5495 HU 77 1 39.7482 -50.6473 HU 80 14 74
1891259N20312 1891 34 NA NA NOT_NAMED 1891-09-25 12:00:00 TS 38.8667 -48.3333 75 hurdat_atl main 944 944 O____________O hurdat_atl AL051891 38.2000 -47.8000 HU 75 1 40.2000 -49.4000 HU 80 15 75
1891259N20312 1891 34 NA NA NOT_NAMED 1891-09-25 15:00:00 TS 39.0794 -47.3996 main 957 957 P____________P AL051891 38.2695 -47.0498 HU 70 1 40.6990 -48.0993 HU 77 15 79
1891259N20312 1891 34 NA NA NOT_NAMED 1891-09-25 18:00:00 TS 39.1636 -46.4364 65 hurdat_atl main 989 989 O____________O hurdat_atl AL051891 38.4000 -46.3000 HU 65 1 41.2000 -46.8000 HU 75 14 86
1891259N20312 1891 34 NA NA NOT_NAMED 1891-09-25 21:00:00 TS 39.1853 -45.5491 main 1032 1032 P____________P AL051891 38.5695 -45.5496 HU 60 0 41.6648 -45.5402 HU 70 13 90
1891259N20312 1891 34 NA NA NOT_NAMED 1891-09-26 00:00:00 TS 39.1667 -44.7444 55 hurdat_atl main 1072 1072 O____________O hurdat_atl AL051891 38.8000 -44.8000 TS 55 0 42.1000 -44.3000 HU 65 12 96
1891259N20312 1891 34 NA NA NOT_NAMED 1891-09-26 03:00:00 TS 39.0695 -44.0493 main 1118 1118 P_____________ AL051891 39.0695 -44.0493 TS 47 0 HU 11 78
1891259N20312 1891 34 NA NA NOT_NAMED 1891-09-26 06:00:00 TS 39.4000 -43.3000 40 hurdat_atl main 1131 1129 O_____________ hurdat_atl AL051891 39.4000 -43.3000 TS 40 0 13 58
1891259N20312 1891 34 NA NA NOT_NAMED 1891-09-26 09:00:00 TS 39.7611 -42.5928 main 1140 1140 P_____________ AL051891 39.7611 -42.5928 TS 40 0 14 55
1891259N20312 1891 34 NA NA NOT_NAMED 1891-09-26 12:00:00 ET 40.2000 -41.8000 40 hurdat_atl main 1159 1157 O_____________ hurdat_atl AL051891 40.2000 -41.8000 EX 40 -4 17 55
1891259N20312 1891 34 NA NA NOT_NAMED 1891-09-26 15:00:00 ET 40.7279 -40.8150 main 1186 1179 P_____________ AL051891 40.7279 -40.8150 EX 40 -4 19 55
1891259N20312 1891 34 NA NA NOT_NAMED 1891-09-26 18:00:00 ET 41.3000 -39.7000 40 hurdat_atl main 1220 O_____________ hurdat_atl AL051891 41.3000 -39.7000 EX 40 -4 20 56

IBTrACS Databaseについて

本データベースは、米国NOAAが公開する1842年以降の世界の熱帯低気圧のベストトラックデータアーカイブInternational Best Track Archive for Climate Stewardship (IBTrACS)を、ウェブで閲覧しやすい形式に変換したものです。

最終更新日:2021-12-03